createdAt,value
2022-09-11T00:02:01.775Z,100.00
2022-09-11T00:04:28.224Z,100.00
2022-09-11T00:06:54.532Z,100.00
2022-09-11T00:09:21.008Z,100.00
2022-09-11T00:11:47.331Z,100.00
2022-09-11T00:14:14.622Z,100.00
2022-09-11T00:16:44.795Z,100.00
2022-09-11T00:19:19.855Z,100.00
2022-09-11T00:21:47.356Z,100.00
2022-09-11T00:24:13.739Z,100.00
2022-09-11T00:26:42.268Z,100.00
2022-09-11T00:29:09.307Z,100.00
2022-09-11T00:31:35.721Z,100.00
2022-09-11T00:34:02.122Z,100.00
2022-09-11T00:36:34.988Z,100.00
2022-09-11T00:39:01.352Z,100.00
2022-09-11T00:41:36.622Z,100.00
2022-09-11T00:44:28.147Z,100.00
2022-09-11T00:46:58.170Z,100.00
2022-09-11T00:49:44.471Z,100.00
2022-09-11T00:52:23.578Z,100.00
2022-09-11T00:55:04.264Z,100.00
2022-09-11T00:57:36.577Z,100.00
2022-09-11T01:00:05.482Z,100.00
2022-09-11T01:02:34.393Z,100.00
2022-09-11T01:05:01.025Z,100.00
2022-09-11T01:07:29.963Z,100.00
2022-09-11T01:09:57.179Z,100.00
2022-09-11T01:12:57.521Z,100.00
2022-09-11T01:15:38.462Z,100.00
2022-09-11T01:18:29.446Z,100.00
2022-09-11T01:21:15.775Z,100.00
2022-09-11T01:23:54.858Z,100.00
2022-09-11T01:27:12.528Z,100.00
2022-09-11T01:29:57.941Z,100.00
2022-09-11T01:32:35.321Z,100.00
2022-09-11T01:35:13.625Z,100.00
2022-09-11T01:38:01.001Z,100.00
2022-09-11T01:40:37.096Z,100.00
2022-09-11T01:43:08.687Z,100.00
2022-09-11T01:45:37.199Z,100.00
2022-09-11T01:48:05.530Z,100.00
2022-09-11T01:50:35.461Z,100.00
2022-09-11T01:53:05.019Z,100.00
2022-09-11T01:55:37.720Z,100.00
2022-09-11T01:58:11.044Z,100.00
2022-09-11T02:00:39.993Z,100.00
2022-09-11T02:03:17.325Z,100.00
2022-09-11T02:05:55.774Z,100.00
2022-09-11T02:08:37.354Z,100.00
2022-09-11T02:11:07.352Z,100.00
2022-09-11T02:14:10.347Z,100.00
2022-09-11T02:16:50.058Z,100.00
2022-09-11T02:19:23.926Z,100.00
2022-09-11T02:21:53.728Z,100.00
2022-09-11T02:24:22.703Z,100.00
2022-09-11T02:26:54.006Z,100.00
2022-09-11T02:29:21.102Z,100.00
2022-09-11T02:31:49.177Z,100.00
2022-09-11T02:34:17.838Z,100.00
2022-09-11T02:37:12.190Z,100.00
2022-09-11T02:40:20.657Z,100.00
2022-09-11T02:43:04.642Z,100.00
2022-09-11T02:46:19.629Z,100.00
2022-09-11T02:48:58.139Z,100.00
2022-09-11T02:51:51.040Z,100.00
2022-09-11T02:54:35.670Z,100.00
2022-09-11T02:57:10.239Z,100.00
2022-09-11T02:59:42.093Z,100.00
2022-09-11T03:02:15.771Z,100.00
2022-09-11T03:04:42.163Z,100.00
2022-09-11T03:07:09.076Z,100.00
2022-09-11T03:09:35.674Z,100.00
2022-09-11T03:12:02.929Z,100.00
2022-09-11T03:14:29.218Z,100.00
2022-09-11T03:16:56.703Z,100.00
2022-09-11T03:19:23.072Z,100.00
2022-09-11T03:21:50.952Z,100.00
2022-09-11T03:24:17.407Z,100.00
2022-09-11T03:26:44.159Z,100.00
2022-09-11T03:29:10.478Z,100.00
2022-09-11T03:31:39.255Z,100.00
2022-09-11T03:34:06.399Z,100.00
2022-09-11T03:36:34.312Z,100.00
2022-09-11T03:39:01.842Z,100.00
2022-09-11T03:41:28.347Z,100.00
2022-09-11T03:43:54.679Z,100.00
2022-09-11T03:46:20.987Z,100.00
2022-09-11T03:48:47.323Z,100.00
2022-09-11T03:51:17.470Z,100.00
2022-09-11T03:53:44.313Z,100.00
2022-09-11T03:56:11.798Z,100.00
2022-09-11T03:58:38.313Z,100.00
2022-09-11T04:01:10.964Z,100.00
2022-09-11T04:03:37.322Z,100.00
2022-09-11T04:06:03.776Z,100.00
2022-09-11T04:08:33.790Z,100.00
2022-09-11T04:11:03.690Z,100.00
2022-09-11T04:13:31.580Z,100.00
2022-09-11T04:16:04.498Z,100.00
2022-09-11T04:18:32.562Z,100.00
2022-09-11T04:20:58.869Z,100.00
2022-09-11T04:23:25.373Z,100.00
2022-09-11T04:25:53.217Z,100.00
2022-09-11T04:28:19.682Z,100.00
2022-09-11T04:30:46.008Z,100.00
2022-09-11T04:33:12.367Z,100.00
2022-09-11T04:35:40.297Z,100.00
2022-09-11T04:38:07.844Z,100.00
2022-09-11T04:40:35.231Z,100.00
2022-09-11T04:43:02.327Z,100.00
2022-09-11T04:45:33.357Z,100.00
2022-09-11T04:48:00.787Z,100.00
2022-09-11T04:50:28.855Z,100.00
2022-09-11T04:52:55.281Z,100.00
2022-09-11T04:55:21.630Z,100.00
2022-09-11T04:57:47.930Z,100.00
2022-09-11T05:00:14.996Z,100.00
2022-09-11T05:02:41.307Z,100.00
2022-09-11T05:05:09.194Z,100.00
2022-09-11T05:07:36.418Z,100.00
2022-09-11T05:10:03.069Z,100.00
2022-09-11T05:12:31.757Z,100.00
2022-09-11T05:14:58.986Z,100.00
2022-09-11T05:17:25.302Z,100.00
2022-09-11T05:19:51.624Z,100.00
2022-09-11T05:22:17.951Z,100.00
2022-09-11T05:24:44.271Z,100.00
2022-09-11T05:27:11.559Z,100.00
2022-09-11T05:29:38.530Z,100.00
2022-09-11T05:32:05.951Z,100.00
2022-09-11T05:34:32.270Z,100.00
2022-09-11T05:36:58.671Z,100.00
2022-09-11T05:39:25.206Z,100.00
2022-09-11T05:41:52.315Z,100.00
2022-09-11T05:44:19.532Z,100.00
2022-09-11T05:46:46.081Z,100.00
2022-09-11T05:49:12.831Z,100.00
2022-09-11T05:51:41.507Z,100.00
2022-09-11T05:54:08.099Z,100.00
2022-09-11T05:56:34.723Z,100.00
2022-09-11T05:59:02.413Z,100.00
2022-09-11T06:01:28.868Z,100.00
2022-09-11T06:03:55.507Z,100.00
2022-09-11T06:06:22.816Z,100.00
2022-09-11T06:08:51.381Z,100.00
2022-09-11T06:11:19.578Z,100.00
2022-09-11T06:13:47.177Z,100.00
2022-09-11T06:16:18.230Z,100.00
2022-09-11T06:18:48.973Z,100.00
2022-09-11T06:21:19.107Z,100.00
2022-09-11T06:23:50.442Z,100.00
2022-09-11T06:26:19.563Z,100.00
2022-09-11T06:28:47.311Z,100.00
2022-09-11T06:31:17.042Z,100.00
2022-09-11T06:33:44.196Z,100.00
2022-09-11T06:36:14.345Z,100.00
2022-09-11T06:38:40.955Z,100.00
2022-09-11T06:41:12.323Z,100.00
2022-09-11T06:43:38.710Z,100.00
2022-09-11T06:46:13.397Z,100.00
2022-09-11T06:48:44.493Z,100.00
2022-09-11T06:51:13.140Z,100.00
2022-09-11T06:53:41.022Z,100.00
2022-09-11T06:56:09.963Z,100.00
2022-09-11T06:58:36.267Z,100.00
2022-09-11T07:01:03.891Z,100.00
2022-09-11T07:03:30.663Z,100.00
2022-09-11T07:05:56.983Z,100.00
2022-09-11T07:08:25.091Z,100.00
2022-09-11T07:10:51.626Z,100.00
2022-09-11T07:13:18.049Z,100.00
2022-09-11T07:15:44.389Z,100.00
2022-09-11T07:18:11.415Z,100.00
2022-09-11T07:20:39.985Z,100.00
2022-09-11T07:23:06.307Z,100.00
2022-09-11T07:25:32.654Z,100.00
2022-09-11T07:27:59.047Z,100.00
2022-09-11T07:30:26.078Z,100.00
2022-09-11T07:32:52.407Z,100.00
2022-09-11T07:35:21.622Z,100.00
2022-09-11T07:37:50.815Z,100.00
2022-09-11T07:40:17.516Z,100.00
2022-09-11T07:42:43.914Z,100.00
2022-09-11T07:45:10.643Z,100.00
2022-09-11T07:47:38.449Z,100.00
2022-09-11T07:50:05.637Z,100.00
2022-09-11T07:52:32.116Z,100.00
2022-09-11T07:54:58.416Z,100.00
2022-09-11T07:57:24.783Z,99.99
2022-09-11T07:59:51.565Z,99.27
2022-09-11T08:02:18.039Z,98.54
2022-09-11T08:04:44.862Z,98.49
2022-09-11T08:07:11.683Z,98.29
2022-09-11T08:09:38.020Z,98.38
2022-09-11T08:12:04.685Z,95.49
2022-09-11T08:14:31.220Z,97.00
2022-09-11T08:16:58.523Z,93.02
2022-09-11T08:19:24.912Z,87.88
2022-09-11T08:21:51.539Z,87.20
2022-09-11T08:24:18.470Z,86.49
2022-09-11T08:26:48.719Z,87.65
2022-09-11T08:29:15.471Z,82.36
2022-09-11T08:31:41.814Z,81.33
2022-09-11T08:34:09.807Z,81.59
2022-09-11T08:36:36.199Z,83.63
2022-09-11T08:39:03.352Z,80.94
2022-09-11T08:41:49.142Z,82.30
2022-09-11T08:44:44.480Z,80.04
2022-09-11T08:47:19.072Z,77.13
2022-09-11T08:49:55.163Z,76.27
2022-09-11T08:52:21.757Z,75.04
2022-09-11T08:54:48.217Z,70.78
2022-09-11T08:57:54.518Z,76.17
2022-09-11T09:00:23.319Z,68.31
2022-09-11T09:03:12.491Z,66.20
2022-09-11T09:05:46.799Z,60.88
2022-09-11T09:08:38.191Z,64.97
2022-09-11T09:11:09.459Z,63.52
2022-09-11T09:14:09.723Z,69.80
2022-09-11T09:16:53.593Z,70.54
2022-09-11T09:19:29.592Z,69.99
2022-09-11T09:22:24.639Z,74.69
2022-09-11T09:24:55.588Z,66.24
2022-09-11T09:27:30.284Z,65.02
2022-09-11T09:30:01.806Z,59.56
2022-09-11T09:32:39.878Z,62.73
2022-09-11T09:35:16.955Z,63.39
2022-09-11T09:37:43.930Z,53.52
2022-09-11T09:40:10.973Z,53.94
2022-09-11T09:42:58.221Z,62.58
2022-09-11T09:45:52.115Z,59.89
2022-09-11T09:48:18.482Z,55.84
2022-09-11T09:50:44.916Z,52.39
2022-09-11T09:53:27.263Z,56.60
2022-09-11T09:55:56.331Z,54.86
2022-09-11T09:58:27.454Z,52.90
2022-09-11T10:00:53.763Z,52.74
2022-09-11T10:03:23.091Z,53.47
2022-09-11T10:05:53.336Z,59.95
2022-09-11T10:08:36.050Z,66.60
2022-09-11T10:11:12.156Z,69.70
2022-09-11T10:13:42.413Z,60.29
2022-09-11T10:16:26.582Z,60.77
2022-09-11T10:18:54.650Z,53.37
2022-09-11T10:21:24.588Z,51.75
2022-09-11T10:23:55.606Z,52.56
2022-09-11T10:26:31.307Z,49.71
2022-09-11T10:29:19.558Z,57.06
2022-09-11T10:31:50.781Z,48.91
2022-09-11T10:34:20.041Z,45.64
2022-09-11T10:37:02.732Z,52.08
2022-09-11T10:39:32.354Z,47.26
2022-09-11T10:42:11.254Z,54.40
2022-09-11T10:44:43.195Z,49.87
2022-09-11T10:47:17.275Z,48.67
2022-09-11T10:49:44.861Z,49.11
2022-09-11T10:52:11.108Z,53.18
2022-09-11T10:55:01.833Z,62.07
2022-09-11T10:57:45.356Z,54.51
2022-09-11T11:00:30.245Z,56.02
2022-09-11T11:03:12.482Z,57.61
2022-09-11T11:06:04.044Z,59.34
2022-09-11T11:09:13.655Z,57.46
2022-09-11T11:12:06.673Z,61.21
2022-09-11T11:14:54.724Z,61.83
2022-09-11T11:18:03.172Z,58.06
2022-09-11T11:20:50.236Z,58.28
2022-09-11T11:23:22.188Z,51.65
2022-09-11T11:26:11.577Z,56.02
2022-09-11T11:28:50.082Z,59.01
2022-09-11T11:31:46.442Z,60.78
2022-09-11T11:34:30.419Z,62.04
2022-09-11T11:37:15.056Z,62.73
2022-09-11T11:40:00.102Z,68.77
2022-09-11T11:42:44.172Z,66.79
2022-09-11T11:45:21.145Z,69.64
2022-09-11T11:47:49.020Z,69.41
2022-09-11T11:50:31.938Z,71.92
2022-09-11T11:53:40.102Z,75.55
2022-09-11T11:56:33.160Z,76.86
2022-09-11T11:59:22.717Z,76.65
2022-09-11T12:02:03.228Z,73.42
2022-09-11T12:04:56.767Z,74.99
2022-09-11T12:07:30.035Z,72.78
2022-09-11T12:09:58.818Z,74.27
2022-09-11T12:12:29.416Z,68.77
2022-09-11T12:15:08.349Z,71.63
2022-09-11T12:17:36.874Z,69.55
2022-09-11T12:20:12.208Z,69.45
2022-09-11T12:22:42.651Z,69.46
2022-09-11T12:25:21.065Z,73.15
2022-09-11T12:27:48.562Z,70.64
2022-09-11T12:30:17.575Z,65.57
2022-09-11T12:32:52.204Z,63.50
2022-09-11T12:35:29.465Z,67.67
2022-09-11T12:38:08.918Z,71.02
2022-09-11T12:40:59.781Z,71.99
2022-09-11T12:43:35.205Z,69.93
2022-09-11T12:46:11.436Z,71.23
2022-09-11T12:48:42.679Z,67.77
2022-09-11T12:51:23.699Z,69.31
2022-09-11T12:53:53.614Z,63.60
2022-09-11T12:56:23.335Z,63.45
2022-09-11T12:58:57.253Z,66.65
2022-09-11T13:01:30.403Z,66.41
2022-09-11T13:04:03.180Z,68.02
2022-09-11T13:06:45.767Z,69.31
2022-09-11T13:09:29.513Z,67.35
2022-09-11T13:12:17.120Z,67.59
2022-09-11T13:14:50.971Z,69.32
2022-09-11T13:17:34.165Z,73.01
2022-09-11T13:20:03.308Z,70.80
2022-09-11T13:22:34.551Z,67.63
2022-09-11T13:25:18.597Z,69.34
2022-09-11T13:27:51.423Z,69.94
2022-09-11T13:30:21.566Z,67.99
2022-09-11T13:33:00.069Z,69.58
2022-09-11T13:35:28.571Z,69.78
2022-09-11T13:38:05.958Z,70.30
2022-09-11T13:40:47.462Z,71.75
2022-09-11T13:43:20.724Z,68.83
2022-09-11T13:45:47.507Z,69.05
2022-09-11T13:48:22.752Z,71.70
2022-09-11T13:50:50.812Z,69.18
2022-09-11T13:53:20.139Z,67.81
2022-09-11T13:55:48.680Z,66.89
2022-09-11T13:58:24.587Z,68.63
2022-09-11T14:00:55.160Z,67.23
2022-09-11T14:03:28.019Z,68.69
2022-09-11T14:05:57.462Z,67.94
2022-09-11T14:08:37.913Z,67.26
2022-09-11T14:11:11.469Z,67.96
2022-09-11T14:13:53.280Z,69.58
2022-09-11T14:16:36.210Z,71.76
2022-09-11T14:19:13.077Z,70.27
2022-09-11T14:21:46.467Z,70.63
2022-09-11T14:24:32.514Z,73.88
2022-09-11T14:27:04.257Z,70.14
2022-09-11T14:29:32.891Z,69.24
2022-09-11T14:32:39.979Z,74.50
2022-09-11T14:35:09.728Z,71.09
2022-09-11T14:37:45.618Z,71.34
2022-09-11T14:40:17.104Z,71.28
2022-09-11T14:42:45.200Z,68.76
2022-09-11T14:45:18.893Z,69.57
2022-09-11T14:47:45.290Z,67.55
2022-09-11T14:50:12.517Z,69.54
2022-09-11T14:52:41.091Z,68.32
2022-09-11T14:55:13.103Z,68.56
2022-09-11T14:57:39.514Z,66.96
2022-09-11T15:00:06.482Z,67.51
2022-09-11T15:02:32.770Z,68.02
2022-09-11T15:04:59.270Z,66.49
2022-09-11T15:07:27.301Z,68.15
2022-09-11T15:09:54.763Z,65.62
2022-09-11T15:12:21.888Z,66.80
2022-09-11T15:14:58.221Z,65.42
2022-09-11T15:17:27.027Z,65.08
2022-09-11T15:19:53.634Z,69.38
2022-09-11T15:22:20.195Z,68.70
2022-09-11T15:24:46.995Z,68.08
2022-09-11T15:27:14.887Z,67.46
2022-09-11T15:29:42.459Z,68.73
2022-09-11T15:32:09.698Z,68.04
2022-09-11T15:34:35.986Z,68.61
2022-09-11T15:37:02.515Z,66.92
2022-09-11T15:39:28.941Z,70.06
2022-09-11T15:41:56.273Z,70.07
2022-09-11T15:44:25.362Z,70.30
2022-09-11T15:46:53.436Z,70.16
2022-09-11T15:49:22.251Z,70.13
2022-09-11T15:51:49.566Z,68.75
2022-09-11T15:54:16.226Z,68.87
2022-09-11T15:56:43.211Z,68.95
2022-09-11T15:59:11.673Z,70.47
2022-09-11T16:01:38.429Z,70.87
2022-09-11T16:04:08.891Z,71.22
2022-09-11T16:06:38.610Z,70.83
2022-09-11T16:09:07.792Z,71.59
2022-09-11T16:11:36.467Z,70.72
2022-09-11T16:14:03.198Z,71.24
2022-09-11T16:16:29.536Z,72.05
2022-09-11T16:18:58.365Z,72.69
2022-09-11T16:21:27.044Z,73.54
2022-09-11T16:23:59.212Z,73.11
2022-09-11T16:26:29.007Z,73.23
2022-09-11T16:28:55.394Z,74.39
2022-09-11T16:31:21.720Z,75.48
2022-09-11T16:33:48.583Z,76.49
2022-09-11T16:36:18.583Z,75.36
2022-09-11T16:38:45.924Z,76.62
2022-09-11T16:41:18.746Z,77.81
2022-09-11T16:43:47.773Z,77.28
2022-09-11T16:46:17.129Z,78.13
2022-09-11T16:48:44.123Z,77.85
2022-09-11T16:51:11.457Z,78.63
2022-09-11T16:53:38.186Z,80.08
2022-09-11T16:56:10.384Z,81.90
2022-09-11T16:58:37.158Z,81.78
2022-09-11T17:01:09.202Z,82.46
2022-09-11T17:03:41.260Z,82.87
2022-09-11T17:06:08.508Z,83.33
2022-09-11T17:08:36.928Z,84.11
2022-09-11T17:11:04.387Z,85.19
2022-09-11T17:13:31.238Z,86.04
2022-09-11T17:16:02.215Z,86.61
2022-09-11T17:18:28.987Z,87.01
2022-09-11T17:20:57.128Z,87.21
2022-09-11T17:23:23.597Z,88.45
2022-09-11T17:25:50.911Z,88.81
2022-09-11T17:28:19.934Z,88.74
2022-09-11T17:30:46.779Z,89.34
2022-09-11T17:33:14.317Z,89.27
2022-09-11T17:35:42.359Z,89.71
2022-09-11T17:38:09.467Z,89.05
2022-09-11T17:40:36.513Z,89.03
2022-09-11T17:43:04.363Z,89.38
2022-09-11T17:45:31.124Z,89.57
2022-09-11T17:47:57.603Z,90.48
2022-09-11T17:50:24.153Z,90.70
2022-09-11T17:52:50.706Z,91.07
2022-09-11T17:55:17.103Z,91.32
2022-09-11T17:57:45.413Z,91.54
2022-09-11T18:00:12.918Z,91.62
2022-09-11T18:02:40.102Z,91.66
2022-09-11T18:05:07.109Z,92.01
2022-09-11T18:07:33.428Z,92.06
2022-09-11T18:09:59.854Z,92.20
2022-09-11T18:12:28.197Z,92.44
2022-09-11T18:14:55.934Z,92.44
2022-09-11T18:17:22.587Z,92.87
2022-09-11T18:19:50.011Z,93.36
2022-09-11T18:22:19.859Z,93.43
2022-09-11T18:24:46.328Z,93.86
2022-09-11T18:27:12.634Z,94.19
2022-09-11T18:29:40.526Z,94.22
2022-09-11T18:32:06.895Z,94.32
2022-09-11T18:34:33.283Z,94.64
2022-09-11T18:37:00.475Z,94.72
2022-09-11T18:39:26.893Z,95.02
2022-09-11T18:41:53.296Z,95.19
2022-09-11T18:44:21.582Z,95.32
2022-09-11T18:46:51.703Z,95.51
2022-09-11T18:49:18.027Z,95.76
2022-09-11T18:51:44.363Z,96.12
2022-09-11T18:54:15.931Z,96.26
2022-09-11T18:56:42.412Z,96.40
2022-09-11T18:59:10.002Z,96.44
2022-09-11T19:01:36.496Z,96.38
2022-09-11T19:04:07.323Z,96.71
2022-09-11T19:06:34.254Z,96.69
2022-09-11T19:09:01.662Z,96.71
2022-09-11T19:11:29.817Z,97.01
2022-09-11T19:14:02.297Z,97.28
2022-09-11T19:16:29.332Z,97.41
2022-09-11T19:18:55.919Z,97.59
2022-09-11T19:21:23.924Z,97.72
2022-09-11T19:23:55.707Z,97.83
2022-09-11T19:26:24.223Z,97.99
2022-09-11T19:28:51.213Z,98.17
2022-09-11T19:31:24.868Z,98.19
2022-09-11T19:33:52.017Z,98.44
2022-09-11T19:36:21.673Z,98.67
2022-09-11T19:38:49.673Z,98.70
2022-09-11T19:41:21.008Z,99.09
2022-09-11T19:43:48.236Z,99.10
2022-09-11T19:46:19.879Z,99.12
2022-09-11T19:48:46.699Z,99.29
2022-09-11T19:51:14.239Z,99.52
2022-09-11T19:53:41.630Z,99.68
2022-09-11T19:56:09.617Z,99.81
2022-09-11T19:58:36.151Z,99.79
2022-09-11T20:01:09.023Z,100.00
2022-09-11T20:03:38.676Z,100.00
2022-09-11T20:06:06.466Z,100.00
2022-09-11T20:08:33.767Z,100.00
2022-09-11T20:11:06.575Z,100.00
2022-09-11T20:13:34.380Z,100.00
2022-09-11T20:16:06.194Z,100.00
2022-09-11T20:18:32.815Z,100.00
2022-09-11T20:21:07.431Z,100.00
2022-09-11T20:23:34.345Z,100.00
2022-09-11T20:26:07.707Z,100.00
2022-09-11T20:28:34.119Z,100.00
2022-09-11T20:31:00.625Z,100.00
2022-09-11T20:33:27.246Z,100.00
2022-09-11T20:35:53.593Z,100.00
2022-09-11T20:38:20.176Z,100.00
2022-09-11T20:40:46.523Z,100.00
2022-09-11T20:43:12.911Z,100.00
2022-09-11T20:45:39.227Z,100.00
2022-09-11T20:48:05.533Z,100.00
2022-09-11T20:50:32.592Z,100.00
2022-09-11T20:53:00.443Z,100.00
2022-09-11T20:55:27.191Z,100.00
2022-09-11T20:57:53.515Z,100.00
2022-09-11T21:00:20.329Z,100.00
2022-09-11T21:02:46.635Z,100.00
2022-09-11T21:05:12.971Z,100.00
2022-09-11T21:07:39.318Z,100.00
2022-09-11T21:10:06.387Z,100.00
2022-09-11T21:12:32.702Z,100.00
2022-09-11T21:14:59.018Z,100.00
2022-09-11T21:17:25.327Z,100.00
2022-09-11T21:19:56.746Z,100.00
2022-09-11T21:22:23.661Z,100.00
2022-09-11T21:24:49.989Z,100.00
2022-09-11T21:27:16.323Z,100.00
2022-09-11T21:29:42.649Z,100.00
2022-09-11T21:32:08.961Z,100.00
2022-09-11T21:34:35.284Z,100.00
2022-09-11T21:37:01.587Z,100.00
2022-09-11T21:39:27.927Z,100.00
2022-09-11T21:41:54.218Z,100.00
2022-09-11T21:44:20.537Z,100.00
2022-09-11T21:46:46.864Z,100.00
2022-09-11T21:49:13.403Z,100.00
2022-09-11T21:51:40.638Z,100.00
2022-09-11T21:54:06.947Z,100.00
2022-09-11T21:56:33.704Z,100.00
2022-09-11T21:59:00.191Z,100.00
2022-09-11T22:01:27.577Z,100.00
2022-09-11T22:03:54.624Z,100.00
2022-09-11T22:06:24.591Z,100.00
2022-09-11T22:08:51.940Z,100.00
2022-09-11T22:11:18.303Z,100.00
2022-09-11T22:13:44.929Z,100.00
2022-09-11T22:16:13.306Z,100.00
2022-09-11T22:18:40.887Z,100.00
2022-09-11T22:21:09.192Z,100.00
2022-09-11T22:23:36.229Z,100.00
2022-09-11T22:26:07.132Z,100.00
2022-09-11T22:28:33.913Z,100.00
2022-09-11T22:31:00.606Z,100.00
2022-09-11T22:33:26.964Z,100.00
2022-09-11T22:35:53.278Z,100.00
2022-09-11T22:38:19.571Z,100.00
2022-09-11T22:40:51.954Z,100.00
2022-09-11T22:43:18.247Z,100.00
2022-09-11T22:45:50.609Z,100.00
2022-09-11T22:48:17.500Z,100.00
2022-09-11T22:50:43.890Z,100.00
2022-09-11T22:53:10.315Z,100.00
2022-09-11T22:55:36.633Z,100.00
2022-09-11T22:58:02.950Z,100.00
2022-09-11T23:00:29.287Z,100.00
2022-09-11T23:02:55.615Z,100.00
2022-09-11T23:05:40.273Z,100.00
2022-09-11T23:08:06.590Z,100.00
2022-09-11T23:10:32.878Z,100.00
2022-09-11T23:12:59.221Z,100.00
2022-09-11T23:15:25.509Z,100.00
2022-09-11T23:17:51.812Z,100.00
2022-09-11T23:20:18.718Z,100.00
2022-09-11T23:22:45.058Z,100.00
2022-09-11T23:25:11.417Z,100.00
2022-09-11T23:27:37.941Z,100.00
2022-09-11T23:30:04.750Z,100.00
2022-09-11T23:32:31.045Z,100.00
2022-09-11T23:34:57.586Z,100.00
2022-09-11T23:37:23.899Z,100.00
2022-09-11T23:39:50.778Z,100.00
2022-09-11T23:42:17.151Z,100.00
2022-09-11T23:44:43.487Z,100.00
2022-09-11T23:47:09.807Z,100.00
2022-09-11T23:49:36.648Z,100.00
2022-09-11T23:52:04.721Z,100.00
2022-09-11T23:54:31.066Z,100.00
2022-09-11T23:56:57.860Z,100.00
2022-09-11T23:59:24.170Z,100.00
